Time;durP1;ratioP1;P1;durP2;ratioP2;P2;SDS_P1;SDS_P2;PMS_P1;PMS_P2;Temp;Humidity;BMP_temperature;BMP_pressure;BME280_temperature;BME280_humidity;BME280_pressure;Samples;Min_cycle;Max_cycle;Signal;HPM_P1;HPM_P2
2023/12/25 00:01:23;;;;;;;0.53;0.53;;;10.70;99.90;;;;;;5002470;28;20457;-80
2023/12/25 00:03:49;;;;;;;0.90;0.90;;;10.70;99.90;;;;;;5008329;28;20452;-79
2023/12/25 00:06:16;;;;;;;1.47;1.37;;;10.70;99.90;;;;;;5003218;28;20535;-79
2023/12/25 00:08:43;;;;;;;0.60;0.50;;;10.70;99.90;;;;;;4999127;28;20225;-81
2023/12/25 00:11:10;;;;;;;2.07;1.87;;;10.80;99.90;;;;;;5005260;28;20485;-80
2023/12/25 00:13:37;;;;;;;0.83;0.83;;;10.80;99.90;;;;;;5009787;28;20448;-79
2023/12/25 00:16:05;;;;;;;0.73;0.60;;;10.80;99.90;;;;;;5010692;28;20443;-79
2023/12/25 00:18:32;;;;;;;1.53;1.43;;;10.80;99.90;;;;;;4998353;28;20467;-79
2023/12/25 00:20:58;;;;;;;2.40;2.30;;;10.80;99.90;;;;;;5013792;28;20435;-80
2023/12/25 00:23:25;;;;;;;0.60;0.60;;;10.80;99.90;;;;;;5013827;28;20454;-80
2023/12/25 00:25:52;;;;;;;1.83;0.93;;;10.80;99.90;;;;;;5013723;28;20446;-80
2023/12/25 00:28:19;;;;;;;0.57;0.57;;;10.80;99.90;;;;;;5013078;28;20459;-81
2023/12/25 00:30:45;;;;;;;1.40;1.30;;;10.80;99.90;;;;;;5013846;28;20565;-79
2023/12/25 00:33:13;;;;;;;1.20;1.10;;;10.80;99.90;;;;;;5013163;28;20451;-81
2023/12/25 00:35:40;;;;;;;5.20;1.17;;;10.80;99.90;;;;;;5013560;28;20452;-79
2023/12/25 00:38:07;;;;;;;0.40;0.40;;;10.80;99.90;;;;;;5013138;28;20464;-79
2023/12/25 00:40:34;;;;;;;0.60;0.53;;;10.80;99.90;;;;;;5013766;28;20825;-80
2023/12/25 00:43:00;;;;;;;0.47;0.37;;;10.80;99.90;;;;;;5013266;28;20810;-81
2023/12/25 00:45:27;;;;;;;0.53;0.40;;;10.80;99.90;;;;;;5013109;28;20837;-79
2023/12/25 00:47:54;;;;;;;0.40;0.30;;;10.80;99.90;;;;;;5013034;28;20467;-80
2023/12/25 00:50:22;;;;;;;0.50;0.50;;;10.80;99.90;;;;;;5012486;28;20467;-81
2023/12/25 00:52:49;;;;;;;0.73;0.73;;;10.80;99.90;;;;;;5013330;28;20450;-79
2023/12/25 00:55:16;;;;;;;3.80;0.70;;;10.80;99.90;;;;;;4994763;28;20469;-79
2023/12/25 00:57:42;;;;;;;0.50;0.50;;;10.90;99.90;;;;;;4999659;28;20549;-81
2023/12/25 01:00:10;;;;;;;0.50;0.40;;;10.90;99.90;;;;;;4996625;28;20470;-79
2023/12/25 01:02:37;;;;;;;0.80;0.80;;;10.90;99.90;;;;;;5012891;28;20451;-79
2023/12/25 01:05:04;;;;;;;0.50;0.50;;;10.80;99.90;;;;;;5012894;28;20440;-79
2023/12/25 01:07:32;;;;;;;1.70;0.83;;;10.80;99.90;;;;;;5012743;28;20471;-81
2023/12/25 01:09:59;;;;;;;3.70;1.13;;;10.80;99.90;;;;;;5012496;28;20486;-80
2023/12/25 01:12:25;;;;;;;0.60;0.60;;;10.80;99.90;;;;;;5002459;28;20450;-80
2023/12/25 01:14:52;;;;;;;1.33;1.33;;;10.80;99.90;;;;;;5001725;28;20451;-80
2023/12/25 01:17:19;;;;;;;1.03;0.93;;;10.80;99.90;;;;;;5002952;28;20467;-79
2023/12/25 01:19:46;;;;;;;0.80;0.80;;;10.90;99.90;;;;;;5015261;28;20951;-81
2023/12/25 01:22:12;;;;;;;0.70;0.70;;;10.80;99.90;;;;;;5013669;28;20203;-80
2023/12/25 01:24:41;;;;;;;0.50;0.50;;;10.90;99.90;;;;;;5007169;28;20443;-81
2023/12/25 01:27:08;;;;;;;2.10;1.90;;;10.90;99.90;;;;;;5013291;28;20467;-80
2023/12/25 01:29:35;;;;;;;2.53;1.73;;;10.90;99.90;;;;;;5013114;28;20207;-81
2023/12/25 01:32:02;;;;;;;1.13;1.13;;;10.90;99.90;;;;;;5013101;28;20210;-80
2023/12/25 01:34:28;;;;;;;1.00;1.00;;;10.90;99.90;;;;;;5013512;28;20443;-80
2023/12/25 01:36:55;;;;;;;5.30;1.17;;;10.90;99.90;;;;;;5013190;28;20220;-78
2023/12/25 01:39:23;;;;;;;0.50;0.47;;;10.90;99.90;;;;;;5013121;28;20969;-80
2023/12/25 01:41:51;;;;;;;0.68;0.68;;;10.90;99.90;;;;;;5013388;28;20539;-79
2023/12/25 01:44:18;;;;;;;0.80;0.80;;;10.90;99.90;;;;;;5012948;28;20207;-78
2023/12/25 01:46:45;;;;;;;0.53;0.53;;;10.90;99.90;;;;;;5013134;28;20447;-80
2023/12/25 01:49:12;;;;;;;2.67;2.47;;;10.90;99.90;;;;;;5013050;28;20538;-80
2023/12/25 01:51:39;;;;;;;2.60;0.63;;;10.90;99.90;;;;;;4997655;28;20475;-80
2023/12/25 01:54:07;;;;;;;0.40;0.40;;;11.00;99.90;;;;;;5014031;28;20443;-79
2023/12/25 01:56:34;;;;;;;0.52;0.47;;;11.00;99.90;;;;;;5012573;28;20449;-80
2023/12/25 01:59:03;;;;;;;0.60;0.60;;;11.00;99.90;;;;;;5013096;28;20222;-80
2023/12/25 02:01:30;;;;;;;1.47;1.37;;;10.90;99.90;;;;;;5013627;28;20560;-81
2023/12/25 02:03:57;;;;;;;0.83;0.83;;;10.90;99.90;;;;;;5013754;28;20789;-81
2023/12/25 02:06:24;;;;;;;0.80;0.80;;;10.90;99.90;;;;;;5013400;28;20439;-80
2023/12/25 02:08:51;;;;;;;0.50;0.43;;;10.90;99.90;;;;;;5013543;28;20553;-81
2023/12/25 02:11:18;;;;;;;1.57;0.87;;;10.90;99.90;;;;;;5013185;28;20475;-81
2023/12/25 02:13:45;;;;;;;0.40;0.40;;;10.90;99.90;;;;;;5014123;28;20450;-80
2023/12/25 02:16:13;;;;;;;2.00;1.00;;;10.90;99.90;;;;;;5016529;28;20451;-79
2023/12/25 02:18:40;;;;;;;0.40;0.40;;;10.90;99.90;;;;;;5016757;28;20455;-80
2023/12/25 02:21:07;;;;;;;0.70;0.43;;;10.90;99.90;;;;;;5017081;28;20784;-82
2023/12/25 02:23:37;;;;;;;0.50;0.47;;;10.90;99.90;;;;;;5016611;28;20826;-80
2023/12/25 02:26:06;;;;;;;0.60;0.60;;;10.90;99.90;;;;;;5009446;28;20452;-80
2023/12/25 02:28:33;;;;;;;0.40;0.30;;;10.90;99.90;;;;;;5007325;28;20479;-81
2023/12/25 02:31:00;;;;;;;0.40;0.40;;;10.90;99.90;;;;;;5002606;28;20484;-80
2023/12/25 02:33:27;;;;;;;0.40;0.30;;;10.90;99.90;;;;;;5006295;28;20469;-81
2023/12/25 02:35:54;;;;;;;0.83;0.83;;;10.90;99.90;;;;;;5011643;28;20440;-81
2023/12/25 02:38:21;;;;;;;0.90;0.73;;;10.90;99.90;;;;;;5013653;28;20550;-81
2023/12/25 02:40:47;;;;;;;0.70;0.53;;;10.90;99.90;;;;;;5012954;28;20459;-81
2023/12/25 02:43:15;;;;;;;0.40;0.30;;;10.90;99.90;;;;;;4997321;28;20444;-83
2023/12/25 02:45:42;;;;;;;0.50;0.40;;;10.90;99.90;;;;;;5008485;28;20435;-80
2023/12/25 02:48:09;;;;;;;1.57;1.13;;;10.90;99.90;;;;;;5016652;28;20465;-81
2023/12/25 02:50:36;;;;;;;0.50;0.50;;;10.90;99.90;;;;;;5000516;28;20487;-82
2023/12/25 02:53:03;;;;;;;0.70;0.70;;;10.90;99.90;;;;;;5016638;28;20458;-80
2023/12/25 02:55:30;;;;;;;0.93;0.60;;;10.90;99.90;;;;;;5007122;28;20455;-81
2023/12/25 02:57:57;;;;;;;0.80;0.77;;;10.90;99.90;;;;;;5010625;28;20470;-80
2023/12/25 03:00:25;;;;;;;1.33;1.23;;;10.90;99.90;;;;;;5000368;28;20532;-80
2023/12/25 03:02:52;;;;;;;1.63;0.80;;;10.90;99.90;;;;;;5016445;28;20540;-80
2023/12/25 03:05:18;;;;;;;2.27;1.30;;;10.90;99.90;;;;;;5016130;28;20451;-80
2023/12/25 03:07:45;;;;;;;0.63;0.63;;;10.90;99.90;;;;;;4987851;28;20477;-81
2023/12/25 03:10:12;;;;;;;0.60;0.60;;;10.90;99.90;;;;;;5003386;28;20435;-79
2023/12/25 03:12:39;;;;;;;0.97;0.87;;;10.90;99.90;;;;;;5007051;28;20538;-81
2023/12/25 03:15:07;;;;;;;0.50;0.50;;;10.90;99.90;;;;;;5001770;28;20803;-80
2023/12/25 03:17:35;;;;;;;0.97;0.53;;;10.90;99.90;;;;;;5013194;28;20463;-80
2023/12/25 03:20:03;;;;;;;0.80;0.60;;;10.90;99.90;;;;;;5010140;28;20446;-81
2023/12/25 03:22:30;;;;;;;0.97;0.97;;;10.90;99.90;;;;;;5013009;28;20443;-80
2023/12/25 03:24:58;;;;;;;0.80;0.80;;;10.90;99.90;;;;;;5015107;28;20443;-80
2023/12/25 03:27:25;;;;;;;1.77;1.67;;;10.90;99.90;;;;;;5015428;28;20466;-81
2023/12/25 03:29:52;;;;;;;0.63;0.50;;;11.00;99.90;;;;;;5015246;28;20953;-80
2023/12/25 03:32:19;;;;;;;0.40;0.40;;;11.00;99.90;;;;;;5015236;28;20505;-79
2023/12/25 03:34:48;;;;;;;0.50;0.40;;;11.00;99.90;;;;;;5014740;28;20443;-80
2023/12/25 03:37:15;;;;;;;0.40;0.30;;;11.00;99.90;;;;;;5014539;28;20463;-79
2023/12/25 03:39:42;;;;;;;0.90;0.80;;;11.00;99.90;;;;;;5003989;28;20954;-80
2023/12/25 03:42:09;;;;;;;0.80;0.80;;;11.00;99.90;;;;;;5009249;28;20444;-81
2023/12/25 03:44:35;;;;;;;0.40;0.30;;;11.00;99.90;;;;;;5006564;28;20440;-79
2023/12/25 03:47:03;;;;;;;0.73;0.73;;;11.00;99.90;;;;;;5014385;28;20469;-79
2023/12/25 03:49:30;;;;;;;1.10;0.43;;;11.00;99.90;;;;;;5013493;28;20923;-79
2023/12/25 03:51:58;;;;;;;0.60;0.60;;;11.10;99.90;;;;;;4999787;28;20486;-79
2023/12/25 03:54:25;;;;;;;2.10;0.60;;;11.10;99.90;;;;;;5014356;28;20449;-79
2023/12/25 03:56:52;;;;;;;0.73;0.73;;;11.10;99.90;;;;;;5006164;28;20431;-80
2023/12/25 03:59:19;;;;;;;2.20;1.00;;;11.10;99.90;;;;;;5006911;28;20447;-79
2023/12/25 04:01:45;;;;;;;0.40;0.40;;;11.10;99.90;;;;;;5005286;28;20834;-79
2023/12/25 04:04:12;;;;;;;0.50;0.40;;;11.10;99.90;;;;;;5014404;28;20450;-78
2023/12/25 04:06:39;;;;;;;0.93;0.93;;;11.10;99.90;;;;;;5014102;28;20451;-80
2023/12/25 04:09:07;;;;;;;0.83;0.83;;;11.10;99.90;;;;;;5014410;28;20959;-81
2023/12/25 04:11:34;;;;;;;5.03;1.33;;;11.20;99.90;;;;;;5013842;28;20479;-80
2023/12/25 04:14:01;;;;;;;0.60;0.50;;;11.20;99.90;;;;;;5014160;28;20444;-79
2023/12/25 04:16:28;;;;;;;0.63;0.50;;;11.20;99.90;;;;;;5014274;28;20819;-78
2023/12/25 04:18:56;;;;;;;0.40;0.40;;;11.20;99.90;;;;;;5014883;28;20830;-80
2023/12/25 04:21:23;;;;;;;0.63;0.63;;;11.20;99.90;;;;;;5014976;28;20436;-80
2023/12/25 04:23:51;;;;;;;0.40;0.40;;;11.20;99.90;;;;;;5014440;28;20444;-80
2023/12/25 04:26:19;;;;;;;0.80;0.80;;;11.20;99.90;;;;;;5014280;28;20439;-79
2023/12/25 04:28:46;;;;;;;0.73;0.70;;;11.20;99.90;;;;;;5014592;28;20556;-81
2023/12/25 04:31:13;;;;;;;0.60;0.60;;;11.20;99.90;;;;;;5014192;28;20558;-80
2023/12/25 04:33:40;;;;;;;0.50;0.43;;;11.20;99.90;;;;;;5014456;28;20810;-79
2023/12/25 04:36:07;;;;;;;0.57;0.53;;;11.20;99.90;;;;;;5013938;28;20439;-80
2023/12/25 04:38:35;;;;;;;0.40;0.30;;;11.30;99.90;;;;;;5013810;28;20463;-80
2023/12/25 04:41:02;;;;;;;0.63;0.63;;;11.20;99.90;;;;;;5014629;28;20440;-81
2023/12/25 04:43:29;;;;;;;0.50;0.50;;;11.20;99.90;;;;;;5014459;28;20443;-79
2023/12/25 04:45:56;;;;;;;2.73;1.63;;;11.20;99.90;;;;;;5014298;28;20954;-80
2023/12/25 04:48:23;;;;;;;0.60;0.50;;;11.20;99.90;;;;;;5014781;28;20913;-80
2023/12/25 04:50:49;;;;;;;1.00;0.90;;;11.20;99.90;;;;;;5013731;28;20594;-79
2023/12/25 04:53:16;;;;;;;0.63;0.57;;;11.20;99.90;;;;;;5014430;28;20436;-80
2023/12/25 04:55:44;;;;;;;2.10;0.60;;;11.20;99.90;;;;;;5014506;28;20436;-80
2023/12/25 04:58:10;;;;;;;0.50;0.50;;;11.20;99.90;;;;;;5013928;28;20538;-79
2023/12/25 05:00:39;;;;;;;0.40;0.30;;;11.20;99.90;;;;;;5014712;28;20939;-80
2023/12/25 05:03:05;;;;;;;0.50;0.50;;;11.20;99.90;;;;;;5013998;28;20455;-79
2023/12/25 05:05:32;;;;;;;0.73;0.70;;;11.20;99.90;;;;;;5013647;28;20757;-79
2023/12/25 05:07:59;;;;;;;0.90;0.70;;;11.20;99.90;;;;;;5014152;28;20463;-80
2023/12/25 05:10:26;;;;;;;0.70;0.63;;;11.20;99.90;;;;;;5014901;28;20923;-81
2023/12/25 05:12:53;;;;;;;1.20;1.07;;;11.20;99.90;;;;;;5013916;28;20483;-79
2023/12/25 05:15:19;;;;;;;0.40;0.40;;;11.20;99.90;;;;;;5014157;28;20819;-81
2023/12/25 05:17:47;;;;;;;0.43;0.40;;;11.20;99.90;;;;;;5006140;28;20473;-81
2023/12/25 05:20:14;;;;;;;0.50;0.40;;;11.20;99.90;;;;;;5014059;28;20466;-79
2023/12/25 05:22:41;;;;;;;0.43;0.37;;;11.20;99.90;;;;;;5014429;28;20443;-80
2023/12/25 05:25:08;;;;;;;0.77;0.77;;;11.10;99.90;;;;;;5009532;28;20436;-80
2023/12/25 05:27:35;;;;;;;0.40;0.40;;;11.10;99.90;;;;;;5010944;28;20481;-79
2023/12/25 05:30:02;;;;;;;0.83;0.50;;;11.10;99.90;;;;;;5014520;28;20802;-81
2023/12/25 05:32:30;;;;;;;0.80;0.63;;;11.10;99.90;;;;;;5006447;28;20554;-79
2023/12/25 05:34:58;;;;;;;0.50;0.50;;;11.10;99.90;;;;;;5004790;28;20447;-80
2023/12/25 05:37:25;;;;;;;0.53;0.53;;;11.10;99.90;;;;;;5005901;28;20467;-79
2023/12/25 05:39:52;;;;;;;0.53;0.53;;;11.10;99.90;;;;;;5013063;28;20443;-80
2023/12/25 05:42:19;;;;;;;0.40;0.30;;;11.10;99.90;;;;;;5013967;28;20444;-81
2023/12/25 05:44:46;;;;;;;1.20;0.80;;;11.10;99.90;;;;;;5012060;28;20449;-78
2023/12/25 05:47:13;;;;;;;0.70;0.70;;;11.10;99.90;;;;;;4993292;28;20540;-79
2023/12/25 05:49:40;;;;;;;0.43;0.43;;;11.10;99.90;;;;;;5005234;28;20439;-77
2023/12/25 05:52:08;;;;;;;0.50;0.50;;;11.10;99.90;;;;;;5010066;28;20486;-80
2023/12/25 05:54:34;;;;;;;0.40;0.40;;;11.10;99.90;;;;;;5009614;28;20435;-81
2023/12/25 05:57:01;;;;;;;0.50;0.50;;;11.10;99.90;;;;;;5001641;28;20482;-82
2023/12/25 05:59:28;;;;;;;0.60;0.60;;;11.10;99.90;;;;;;5009623;28;20479;-81
2023/12/25 06:01:55;;;;;;;0.53;0.50;;;11.10;99.90;;;;;;5017122;28;20446;-79
2023/12/25 06:04:21;;;;;;;1.13;1.13;;;11.10;99.90;;;;;;5011726;28;20530;-81
2023/12/25 06:06:48;;;;;;;2.40;1.33;;;11.00;99.90;;;;;;5014495;28;20439;-82
2023/12/25 06:09:16;;;;;;;0.90;0.60;;;11.00;99.90;;;;;;5012317;28;20439;-82
2023/12/25 06:11:43;;;;;;;0.50;0.40;;;11.00;99.90;;;;;;5010304;28;20475;-78
2023/12/25 06:14:10;;;;;;;0.87;0.87;;;11.00;99.90;;;;;;5017817;28;20850;-80
2023/12/25 06:16:37;;;;;;;0.63;0.63;;;10.90;99.90;;;;;;5017743;28;20787;-80
2023/12/25 06:19:04;;;;;;;0.60;0.60;;;10.90;99.90;;;;;;5002508;28;20930;-80
2023/12/25 06:21:30;;;;;;;1.23;0.60;;;11.00;99.90;;;;;;5008768;28;20432;-81
2023/12/25 06:23:58;;;;;;;0.60;0.60;;;10.90;99.90;;;;;;5017428;28;20446;-79
2023/12/25 06:26:26;;;;;;;0.60;0.60;;;11.00;99.90;;;;;;5017055;28;20474;-80
2023/12/25 06:28:53;;;;;;;0.60;0.60;;;10.90;99.90;;;;;;5017372;28;20474;-82
2023/12/25 06:31:19;;;;;;;1.33;0.60;;;11.00;99.90;;;;;;5017258;28;20479;-80
2023/12/25 06:33:46;;;;;;;0.60;0.60;;;11.00;99.90;;;;;;5016952;28;20439;-78
2023/12/25 06:36:13;;;;;;;0.77;0.60;;;10.90;99.90;;;;;;5016764;28;20461;-80
2023/12/25 06:38:40;;;;;;;0.83;0.83;;;10.90;99.90;;;;;;5016927;28;20467;-80
2023/12/25 06:41:06;;;;;;;0.50;0.40;;;10.90;99.90;;;;;;5010085;28;20455;-80
2023/12/25 06:43:35;;;;;;;1.83;1.63;;;10.90;99.90;;;;;;5009391;28;21010;-80
2023/12/25 06:46:01;;;;;;;0.50;0.50;;;10.90;99.90;;;;;;5007748;28;20443;-79
2023/12/25 06:48:28;;;;;;;1.70;1.20;;;10.80;99.90;;;;;;5015673;28;20475;-80
2023/12/25 06:50:55;;;;;;;0.53;0.53;;;10.80;99.90;;;;;;5005771;28;20482;-80
2023/12/25 06:53:22;;;;;;;1.33;1.23;;;10.80;99.90;;;;;;5002354;28;20479;-81
2023/12/25 06:55:49;;;;;;;0.83;0.83;;;10.90;99.90;;;;;;5007932;28;20452;-79
2023/12/25 06:58:15;;;;;;;0.57;0.40;;;10.90;99.90;;;;;;5008712;28;20461;-80
2023/12/25 07:00:43;;;;;;;0.53;0.50;;;10.80;99.90;;;;;;5007083;28;20440;-81
2023/12/25 07:03:10;;;;;;;0.60;0.50;;;10.80;99.90;;;;;;5008236;28;20883;-81
2023/12/25 07:05:37;;;;;;;0.60;0.60;;;10.80;99.90;;;;;;5007346;28;20961;-81
2023/12/25 07:08:04;;;;;;;0.50;0.40;;;10.80;99.90;;;;;;5014541;28;20550;-82
2023/12/25 07:10:31;;;;;;;0.50;0.50;;;10.80;99.90;;;;;;5015661;28;20439;-81
2023/12/25 07:12:57;;;;;;;0.60;0.50;;;10.90;99.90;;;;;;5015532;28;20486;-80
2023/12/25 07:15:24;;;;;;;0.60;0.53;;;10.90;99.90;;;;;;5015493;28;20435;-79
2023/12/25 07:17:52;;;;;;;0.50;0.40;;;10.90;99.90;;;;;;5014385;28;20219;-79
2023/12/25 07:20:19;;;;;;;0.50;0.50;;;10.90;99.90;;;;;;5010570;28;20440;-81
2023/12/25 07:22:46;;;;;;;0.50;0.40;;;10.90;99.90;;;;;;5003082;28;20531;-79
2023/12/25 07:25:12;;;;;;;0.50;0.40;;;10.90;99.90;;;;;;5006887;28;20471;-81
2023/12/25 07:27:40;;;;;;;0.43;0.43;;;10.90;99.90;;;;;;5015001;28;21086;-80
2023/12/25 07:30:07;;;;;;;1.20;0.50;;;10.90;99.90;;;;;;5006405;28;20448;-79
2023/12/25 07:32:34;;;;;;;0.40;0.40;;;10.90;99.90;;;;;;5008125;28;20486;-79
2023/12/25 07:35:02;;;;;;;0.80;0.60;;;10.90;99.90;;;;;;5005152;28;20448;-81
2023/12/25 07:37:29;;;;;;;0.50;0.50;;;10.90;99.90;;;;;;5006581;28;21012;-80
2023/12/25 07:39:56;;;;;;;0.50;0.47;;;10.90;99.90;;;;;;5006247;28;20444;-78
2023/12/25 07:42:23;;;;;;;0.40;0.30;;;10.90;99.90;;;;;;5006307;28;20431;-80
2023/12/25 07:44:49;;;;;;;0.57;0.40;;;10.90;99.90;;;;;;5013680;28;20435;-81
2023/12/25 07:47:16;;;;;;;0.40;0.40;;;10.90;99.90;;;;;;5007646;28;20452;-78
2023/12/25 07:49:43;;;;;;;0.40;0.40;;;10.90;99.90;;;;;;5007229;28;20447;-78
2023/12/25 07:52:11;;;;;;;0.40;0.30;;;11.00;99.90;;;;;;5013994;28;20490;-79
2023/12/25 07:54:38;;;;;;;1.07;0.97;;;11.00;99.90;;;;;;5014167;28;20448;-79
2023/12/25 07:57:05;;;;;;;0.50;0.50;;;11.00;99.90;;;;;;5014515;28;20463;-78
2023/12/25 07:59:32;;;;;;;0.40;0.30;;;11.00;99.90;;;;;;5014481;28;20447;-82
2023/12/25 08:01:58;;;;;;;0.50;0.50;;;11.00;99.90;;;;;;5015429;28;20442;-77
2023/12/25 08:04:25;;;;;;;0.40;0.30;;;11.10;99.90;;;;;;4994722;28;20458;-80
2023/12/25 08:06:52;;;;;;;0.40;0.40;;;11.00;99.90;;;;;;4996992;28;20458;-78
2023/12/25 08:09:20;;;;;;;0.40;0.40;;;11.10;99.90;;;;;;5010950;28;20455;-80
2023/12/25 08:11:47;;;;;;;0.40;0.30;;;11.10;99.90;;;;;;5003197;28;20456;-81
2023/12/25 08:14:13;;;;;;;0.40;0.40;;;11.10;99.90;;;;;;4999644;28;20428;-84
2023/12/25 08:16:40;;;;;;;0.40;0.30;;;11.10;99.90;;;;;;5007500;28;20454;-83
2023/12/25 08:19:07;;;;;;;0.50;0.40;;;11.10;99.90;;;;;;4997320;28;20463;-82
2023/12/25 08:21:34;;;;;;;0.40;0.30;;;11.10;99.90;;;;;;5010052;28;20814;-82
2023/12/25 08:24:01;;;;;;;0.40;0.30;;;11.10;99.90;;;;;;5015719;28;20530;-83
2023/12/25 08:26:29;;;;;;;0.40;0.30;;;11.00;99.90;;;;;;5006977;28;20440;-81
2023/12/25 08:28:56;;;;;;;0.40;0.30;;;10.90;99.90;;;;;;5007994;28;20463;-81
2023/12/25 08:31:23;;;;;;;0.40;0.30;;;10.90;99.90;;;;;;5008010;28;20467;-80
2023/12/25 08:33:49;;;;;;;0.40;0.30;;;10.80;99.90;;;;;;5007540;28;20478;-83
2023/12/25 08:36:16;;;;;;;0.40;0.30;;;10.80;99.90;;;;;;4991298;28;20449;-82
2023/12/25 08:38:43;;;;;;;0.40;0.30;;;10.70;99.90;;;;;;5007852;28;20453;-83
2023/12/25 08:41:10;;;;;;;0.40;0.40;;;10.70;99.90;;;;;;4995209;28;20452;-83
2023/12/25 08:43:38;;;;;;;0.47;0.37;;;10.60;99.90;;;;;;5010291;28;20447;-82
2023/12/25 08:46:05;;;;;;;0.50;0.40;;;10.60;99.90;;;;;;5015514;28;20444;-83
2023/12/25 08:48:32;;;;;;;0.40;0.30;;;10.60;99.90;;;;;;5015574;28;20996;-82
2023/12/25 08:50:58;;;;;;;0.40;0.30;;;10.50;99.90;;;;;;5015000;28;20447;-81
2023/12/25 08:53:25;;;;;;;0.40;0.30;;;10.50;99.90;;;;;;5014844;28;20482;-81
2023/12/25 08:55:52;;;;;;;1.23;0.60;;;10.50;99.90;;;;;;5015299;28;20444;-83
2023/12/25 08:58:18;;;;;;;0.50;0.40;;;10.50;99.90;;;;;;4999770;28;20830;-81
2023/12/25 09:00:47;;;;;;;0.40;0.30;;;10.50;99.90;;;;;;5015338;28;20953;-80
2023/12/25 09:03:14;;;;;;;0.40;0.30;;;10.40;99.90;;;;;;5015068;28;20443;-82
2023/12/25 09:05:41;;;;;;;0.40;0.40;;;10.30;99.90;;;;;;5015170;28;20458;-82
2023/12/25 09:08:08;;;;;;;0.40;0.30;;;10.30;99.90;;;;;;5014474;28;20463;-82
2023/12/25 09:10:35;;;;;;;0.40;0.40;;;10.20;99.90;;;;;;5015022;28;20474;-81
2023/12/25 09:13:02;;;;;;;0.40;0.40;;;10.20;99.90;;;;;;5015528;28;21137;-80
2023/12/25 09:15:29;;;;;;;0.40;0.30;;;10.20;99.90;;;;;;5015525;28;20447;-82
2023/12/25 09:17:57;;;;;;;0.40;0.30;;;10.20;99.90;;;;;;5014697;28;21016;-82
2023/12/25 09:20:24;;;;;;;0.60;0.57;;;10.10;99.90;;;;;;4999372;28;20455;-80
2023/12/25 09:22:51;;;;;;;0.40;0.30;;;10.10;99.90;;;;;;5011565;28;20446;-81
2023/12/25 09:25:17;;;;;;;2.30;1.53;;;10.10;99.90;;;;;;5018478;28;20446;-81
2023/12/25 09:27:44;;;;;;;0.40;0.30;;;10.10;99.90;;;;;;5019567;28;20490;-81
2023/12/25 09:30:12;;;;;;;0.40;0.40;;;10.10;99.90;;;;;;5018569;28;20440;-80
2023/12/25 09:32:41;;;;;;;0.40;0.30;;;10.00;99.90;;;;;;5019225;28;20467;-79
2023/12/25 09:35:10;;;;;;;0.50;0.50;;;10.00;99.90;;;;;;5019551;28;20811;-82
2023/12/25 09:37:37;;;;;;;0.40;0.40;;;10.00;99.90;;;;;;5019346;28;20815;-82
2023/12/25 09:40:05;;;;;;;0.40;0.33;;;10.00;99.90;;;;;;5019350;28;20515;-80
2023/12/25 09:42:32;;;;;;;3.80;2.87;;;10.00;99.90;;;;;;4991341;28;20508;-81
2023/12/25 09:44:59;;;;;;;1.83;0.90;;;10.00;99.90;;;;;;5015656;28;20447;-81
2023/12/25 09:47:26;;;;;;;4.23;1.43;;;10.00;99.90;;;;;;5019219;28;20546;-82
2023/12/25 09:49:54;;;;;;;0.40;0.30;;;10.00;99.90;;;;;;5018628;28;20446;-82
2023/12/25 09:52:24;;;;;;;0.73;0.73;;;10.00;99.90;;;;;;5018691;28;20479;-81
2023/12/25 09:54:51;;;;;;;0.40;0.40;;;10.00;99.90;;;;;;5018600;28;20451;-80
2023/12/25 09:57:19;;;;;;;0.40;0.37;;;10.10;99.90;;;;;;5018696;28;20487;-82
2023/12/25 09:59:49;;;;;;;0.40;0.30;;;10.10;99.90;;;;;;5012007;28;20439;-83
2023/12/25 10:02:18;;;;;;;0.43;0.40;;;10.10;99.90;;;;;;5017677;28;20897;-82
2023/12/25 10:04:47;;;;;;;0.40;0.30;;;10.20;99.90;;;;;;4994871;28;20444;-81
2023/12/25 10:07:14;;;;;;;0.40;0.30;;;10.20;99.90;;;;;;5014489;28;20471;-82
2023/12/25 10:09:42;;;;;;;0.40;0.40;;;10.20;99.90;;;;;;5018795;28;20450;-82
2023/12/25 10:12:10;;;;;;;0.40;0.40;;;10.20;99.90;;;;;;4999105;28;20467;-82
2023/12/25 10:14:36;;;;;;;0.40;0.30;;;10.20;99.90;;;;;;5012347;28;20815;-83
2023/12/25 10:17:03;;;;;;;0.40;0.40;;;10.20;99.90;;;;;;5017457;28;20467;-80
2023/12/25 10:19:30;;;;;;;0.40;0.40;;;10.20;99.90;;;;;;5018051;28;20439;-82
2023/12/25 10:21:57;;;;;;;0.40;0.30;;;10.20;99.90;;;;;;5017527;28;20443;-80
2023/12/25 10:24:26;;;;;;;0.40;0.30;;;10.20;99.90;;;;;;5014132;28;20440;-82
2023/12/25 10:27:02;;;;;;;1.23;1.13;;;10.30;99.90;;;;;;4996715;28;20456;-83
2023/12/25 10:29:35;;;;;;;0.40;0.33;;;10.30;99.90;;;;;;5002558;28;20939;-84
2023/12/25 10:32:17;;;;;;;1.03;1.03;;;10.30;99.90;;;;;;5017543;28;20892;-81
2023/12/25 10:34:44;;;;;;;0.40;0.40;;;10.30;99.90;;;;;;5000482;28;20444;-81
2023/12/25 10:37:12;;;;;;;0.40;0.40;;;10.30;99.90;;;;;;5013791;28;20473;-81
2023/12/25 10:39:38;;;;;;;0.40;0.30;;;10.40;99.90;;;;;;5016187;28;20485;-81
2023/12/25 10:42:07;;;;;;;2.30;2.10;;;10.40;99.90;;;;;;5015954;28;20449;-81
2023/12/25 10:44:36;;;;;;;2.77;0.83;;;10.50;99.90;;;;;;5015880;28;20530;-80
2023/12/25 10:47:06;;;;;;;2.73;2.63;;;10.50;99.90;;;;;;5015375;28;20898;-80
2023/12/25 10:49:33;;;;;;;0.40;0.40;;;10.50;99.90;;;;;;5017394;28;20466;-82
2023/12/25 10:52:02;;;;;;;0.40;0.30;;;10.50;99.90;;;;;;5004049;28;20561;-80
2023/12/25 10:54:29;;;;;;;0.40;0.30;;;10.40;99.90;;;;;;5003552;28;20479;-80
2023/12/25 10:56:56;;;;;;;0.40;0.33;;;10.40;99.90;;;;;;5015107;28;20980;-81
2023/12/25 10:59:28;;;;;;;0.40;0.40;;;10.50;99.90;;;;;;5015254;28;20445;-81
2023/12/25 11:01:56;;;;;;;3.73;0.83;;;10.50;99.90;;;;;;5016042;28;20946;-81
2023/12/25 11:04:24;;;;;;;0.40;0.30;;;10.50;99.90;;;;;;5015508;28;20443;-81
2023/12/25 11:06:52;;;;;;;0.40;0.30;;;10.50;99.90;;;;;;5007623;28;20452;-80
2023/12/25 11:09:22;;;;;;;0.40;0.40;;;10.50;99.90;;;;;;4999930;28;20478;-81
2023/12/25 11:11:49;;;;;;;0.40;0.30;;;10.60;99.90;;;;;;5009910;28;20482;-83
2023/12/25 11:14:16;;;;;;;0.40;0.40;;;10.60;99.90;;;;;;5015101;28;20486;-80
2023/12/25 11:16:45;;;;;;;0.40;0.40;;;10.60;99.90;;;;;;5015064;28;20992;-82
2023/12/25 11:19:11;;;;;;;0.40;0.40;;;10.60;99.90;;;;;;5015114;28;20550;-82
2023/12/25 11:21:38;;;;;;;2.30;1.07;;;10.50;99.90;;;;;;5015235;28;20447;-80
2023/12/25 11:24:08;;;;;;;0.40;0.40;;;10.50;99.90;;;;;;5014521;28;20447;-82
2023/12/25 11:26:35;;;;;;;0.40;0.30;;;10.50;99.90;;;;;;4999729;28;20438;-82
2023/12/25 11:29:03;;;;;;;1.27;1.27;;;10.50;99.90;;;;;;5014644;28;20463;-81
2023/12/25 11:31:41;;;;;;;0.40;0.30;;;10.50;99.90;;;;;;5014720;28;20448;-81
2023/12/25 11:34:23;;;;;;;0.40;0.37;;;10.50;99.90;;;;;;5014493;28;20854;-80
2023/12/25 11:36:54;;;;;;;0.40;0.33;;;10.60;99.90;;;;;;5014094;28;20482;-81
2023/12/25 11:39:23;;;;;;;0.40;0.30;;;10.60;99.90;;;;;;5014983;28;20444;-81
2023/12/25 11:41:50;;;;;;;0.40;0.30;;;10.70;99.90;;;;;;5014986;28;20439;-82
2023/12/25 11:44:19;;;;;;;0.40;0.30;;;10.70;99.90;;;;;;5047226;22;20494;-78
2023/12/25 11:46:47;;;;;;;0.60;0.60;;;10.70;99.90;;;;;;5040732;28;20454;-82
2023/12/25 11:49:13;;;;;;;0.40;0.30;;;10.70;99.90;;;;;;5042316;28;20449;-82
2023/12/25 11:51:47;;;;;;;0.90;0.67;;;10.80;99.90;;;;;;5055781;28;20461;-82
2023/12/25 11:54:14;;;;;;;0.90;0.90;;;10.70;99.90;;;;;;5046563;28;20485;-78
2023/12/25 11:56:41;;;;;;;0.50;0.40;;;10.70;99.90;;;;;;5044900;28;20435;-82
2023/12/25 11:59:09;;;;;;;1.03;1.03;;;10.70;99.90;;;;;;5044874;28;20442;-83
2023/12/25 12:01:36;;;;;;;0.63;0.60;;;10.70;99.90;;;;;;5034137;28;20437;-81
2023/12/25 12:04:04;;;;;;;0.80;0.80;;;10.70;99.90;;;;;;5048693;28;20454;-82
2023/12/25 12:06:31;;;;;;;0.40;0.40;;;10.70;99.90;;;;;;5045165;28;20441;-81
2023/12/25 12:08:59;;;;;;;0.40;0.40;;;10.70;99.90;;;;;;5045105;28;20438;-82
2023/12/25 12:11:26;;;;;;;0.60;0.60;;;10.70;99.90;;;;;;5047087;28;20438;-81
2023/12/25 12:13:52;;;;;;;0.40;0.40;;;10.80;99.90;;;;;;5047363;28;20477;-81
2023/12/25 12:16:19;;;;;;;0.40;0.30;;;10.80;99.90;;;;;;5045776;28;20445;-82
2023/12/25 12:18:46;;;;;;;0.40;0.30;;;10.70;99.90;;;;;;5043925;28;20964;-81
2023/12/25 12:21:13;;;;;;;0.40;0.30;;;10.70;99.90;;;;;;5038928;28;20455;-80
2023/12/25 12:23:41;;;;;;;0.47;0.43;;;10.70;99.90;;;;;;5026001;28;20960;-82
2023/12/25 12:26:16;;;;;;;3.37;2.20;;;10.70;99.90;;;;;;5047404;28;20433;-82
2023/12/25 12:28:43;;;;;;;1.30;1.30;;;10.70;99.90;;;;;;5041698;28;20460;-82
2023/12/25 12:31:10;;;;;;;7.50;1.70;;;10.70;99.90;;;;;;5055638;28;20441;-83
2023/12/25 12:33:37;;;;;;;0.80;0.80;;;10.60;99.90;;;;;;5044120;28;20482;-83
2023/12/25 12:36:04;;;;;;;4.60;2.73;;;10.60;99.90;;;;;;5043430;28;20450;-82
2023/12/25 12:38:31;;;;;;;0.40;0.30;;;10.60;99.90;;;;;;5046167;28;20456;-79
2023/12/25 12:41:00;;;;;;;0.40;0.30;;;10.60;99.90;;;;;;5048944;28;20499;-82
2023/12/25 12:43:28;;;;;;;0.70;0.70;;;10.60;99.90;;;;;;5045636;28;20472;-81
2023/12/25 12:45:55;;;;;;;0.40;0.30;;;10.60;99.90;;;;;;5043762;28;20450;-82
2023/12/25 12:48:23;;;;;;;0.50;0.50;;;10.60;99.90;;;;;;5044310;28;20456;-79